sensor_id;sensor_type;location;lat;lon;timestamp;P1;durP1;ratioP1;P2;durP2;ratioP2
9541;SDS011;4809;48.224;8.572;2023-02-28T00:01:19;6.30;;;4.43;;
9541;SDS011;4809;48.224;8.572;2023-02-28T00:03:45;11.00;;;6.13;;
9541;SDS011;4809;48.224;8.572;2023-02-28T00:06:11;8.93;;;4.80;;
9541;SDS011;4809;48.224;8.572;2023-02-28T00:08:37;8.00;;;5.00;;
9541;SDS011;4809;48.224;8.572;2023-02-28T00:11:04;11.40;;;6.70;;
9541;SDS011;4809;48.224;8.572;2023-02-28T00:13:31;8.97;;;5.17;;
9541;SDS011;4809;48.224;8.572;2023-02-28T00:16:05;10.17;;;6.03;;
9541;SDS011;4809;48.224;8.572;2023-02-28T00:18:36;8.23;;;4.90;;
9541;SDS011;4809;48.224;8.572;2023-02-28T00:21:02;9.10;;;5.40;;
9541;SDS011;4809;48.224;8.572;2023-02-28T00:23:28;9.77;;;5.97;;
9541;SDS011;4809;48.224;8.572;2023-02-28T00:25:54;7.00;;;4.50;;
9541;SDS011;4809;48.224;8.572;2023-02-28T00:28:20;7.70;;;5.27;;
9541;SDS011;4809;48.224;8.572;2023-02-28T00:30:46;5.90;;;4.70;;
9541;SDS011;4809;48.224;8.572;2023-02-28T00:33:12;8.13;;;4.73;;
9541;SDS011;4809;48.224;8.572;2023-02-28T00:35:37;4.57;;;3.70;;
9541;SDS011;4809;48.224;8.572;2023-02-28T00:38:03;6.47;;;4.43;;
9541;SDS011;4809;48.224;8.572;2023-02-28T00:40:29;5.30;;;3.77;;
9541;SDS011;4809;48.224;8.572;2023-02-28T00:42:54;5.20;;;3.83;;
9541;SDS011;4809;48.224;8.572;2023-02-28T00:45:20;7.47;;;4.10;;
9541;SDS011;4809;48.224;8.572;2023-02-28T00:47:46;6.00;;;4.00;;
9541;SDS011;4809;48.224;8.572;2023-02-28T00:50:14;4.47;;;3.40;;
9541;SDS011;4809;48.224;8.572;2023-02-28T00:52:44;6.23;;;3.90;;
9541;SDS011;4809;48.224;8.572;2023-02-28T00:55:10;4.90;;;3.53;;
9541;SDS011;4809;48.224;8.572;2023-02-28T00:57:36;5.97;;;3.37;;
9541;SDS011;4809;48.224;8.572;2023-02-28T01:00:02;6.00;;;3.77;;
9541;SDS011;4809;48.224;8.572;2023-02-28T01:02:28;5.50;;;3.73;;
9541;SDS011;4809;48.224;8.572;2023-02-28T01:04:54;6.67;;;3.83;;
9541;SDS011;4809;48.224;8.572;2023-02-28T01:07:21;5.50;;;3.73;;
9541;SDS011;4809;48.224;8.572;2023-02-28T01:09:47;5.73;;;3.73;;
9541;SDS011;4809;48.224;8.572;2023-02-28T01:12:13;5.90;;;3.97;;
9541;SDS011;4809;48.224;8.572;2023-02-28T01:14:38;5.13;;;3.83;;
9541;SDS011;4809;48.224;8.572;2023-02-28T01:17:05;5.77;;;3.80;;
9541;SDS011;4809;48.224;8.572;2023-02-28T01:19:30;5.90;;;3.70;;
9541;SDS011;4809;48.224;8.572;2023-02-28T01:21:56;6.40;;;3.77;;
9541;SDS011;4809;48.224;8.572;2023-02-28T01:24:25;3.67;;;3.23;;
9541;SDS011;4809;48.224;8.572;2023-02-28T01:26:50;5.20;;;3.93;;
9541;SDS011;4809;48.224;8.572;2023-02-28T01:29:16;6.10;;;3.80;;
9541;SDS011;4809;48.224;8.572;2023-02-28T01:31:41;6.67;;;4.00;;
9541;SDS011;4809;48.224;8.572;2023-02-28T01:34:07;5.90;;;3.70;;
9541;SDS011;4809;48.224;8.572;2023-02-28T01:36:33;5.80;;;3.83;;
9541;SDS011;4809;48.224;8.572;2023-02-28T01:38:58;5.40;;;3.67;;
9541;SDS011;4809;48.224;8.572;2023-02-28T01:41:32;4.40;;;3.60;;
9541;SDS011;4809;48.224;8.572;2023-02-28T01:44:01;4.53;;;3.43;;
9541;SDS011;4809;48.224;8.572;2023-02-28T01:46:32;4.97;;;3.80;;
9541;SDS011;4809;48.224;8.572;2023-02-28T01:49:04;4.87;;;3.33;;
9541;SDS011;4809;48.224;8.572;2023-02-28T01:54:11;4.30;;;3.50;;
9541;SDS011;4809;48.224;8.572;2023-02-28T01:56:43;5.33;;;3.60;;
9541;SDS011;4809;48.224;8.572;2023-02-28T01:59:13;6.77;;;3.90;;
9541;SDS011;4809;48.224;8.572;2023-02-28T02:01:45;7.23;;;3.30;;
9541;SDS011;4809;48.224;8.572;2023-02-28T02:04:11;4.63;;;3.27;;
9541;SDS011;4809;48.224;8.572;2023-02-28T02:06:40;5.87;;;3.90;;
9541;SDS011;4809;48.224;8.572;2023-02-28T02:09:09;6.47;;;3.90;;
9541;SDS011;4809;48.224;8.572;2023-02-28T02:11:36;6.63;;;3.70;;
9541;SDS011;4809;48.224;8.572;2023-02-28T02:27:59;5.73;;;3.80;;
9541;SDS011;4809;48.224;8.572;2023-02-28T02:36:13;5.63;;;3.50;;
9541;SDS011;4809;48.224;8.572;2023-02-28T02:38:49;4.73;;;3.53;;
9541;SDS011;4809;48.224;8.572;2023-02-28T02:44:24;5.87;;;3.30;;
9541;SDS011;4809;48.224;8.572;2023-02-28T02:47:16;5.50;;;3.77;;
9541;SDS011;4809;48.224;8.572;2023-02-28T02:49:46;4.53;;;3.70;;
9541;SDS011;4809;48.224;8.572;2023-02-28T02:52:18;3.57;;;3.17;;
9541;SDS011;4809;48.224;8.572;2023-02-28T02:54:48;5.80;;;3.90;;
9541;SDS011;4809;48.224;8.572;2023-02-28T02:57:29;5.00;;;3.50;;
9541;SDS011;4809;48.224;8.572;2023-02-28T02:59:58;5.03;;;3.73;;
9541;SDS011;4809;48.224;8.572;2023-02-28T03:02:26;5.73;;;3.60;;
9541;SDS011;4809;48.224;8.572;2023-02-28T03:04:59;4.10;;;3.40;;
9541;SDS011;4809;48.224;8.572;2023-02-28T03:07:29;5.20;;;3.80;;
9541;SDS011;4809;48.224;8.572;2023-02-28T03:09:56;5.57;;;3.87;;
9541;SDS011;4809;48.224;8.572;2023-02-28T03:12:32;6.13;;;3.63;;
9541;SDS011;4809;48.224;8.572;2023-02-28T03:15:18;4.47;;;3.60;;
9541;SDS011;4809;48.224;8.572;2023-02-28T03:18:14;4.73;;;3.47;;
9541;SDS011;4809;48.224;8.572;2023-02-28T03:24:04;4.07;;;3.43;;
9541;SDS011;4809;48.224;8.572;2023-02-28T03:26:45;4.73;;;3.50;;
9541;SDS011;4809;48.224;8.572;2023-02-28T03:29:32;5.13;;;3.53;;
9541;SDS011;4809;48.224;8.572;2023-02-28T03:32:05;5.57;;;3.90;;
9541;SDS011;4809;48.224;8.572;2023-02-28T03:34:46;5.83;;;3.50;;
9541;SDS011;4809;48.224;8.572;2023-02-28T03:37:26;5.03;;;4.30;;
9541;SDS011;4809;48.224;8.572;2023-02-28T03:39:59;5.30;;;4.00;;
9541;SDS011;4809;48.224;8.572;2023-02-28T03:42:38;5.27;;;3.80;;
9541;SDS011;4809;48.224;8.572;2023-02-28T03:45:16;4.10;;;3.70;;
9541;SDS011;4809;48.224;8.572;2023-02-28T03:47:52;6.70;;;3.80;;
9541;SDS011;4809;48.224;8.572;2023-02-28T03:50:21;4.57;;;3.97;;
9541;SDS011;4809;48.224;8.572;2023-02-28T03:52:58;5.40;;;4.20;;
9541;SDS011;4809;48.224;8.572;2023-02-28T03:55:30;4.47;;;3.80;;
9541;SDS011;4809;48.224;8.572;2023-02-28T04:01:02;6.83;;;4.80;;
9541;SDS011;4809;48.224;8.572;2023-02-28T04:03:35;4.47;;;3.87;;
9541;SDS011;4809;48.224;8.572;2023-02-28T04:06:02;6.10;;;3.93;;
9541;SDS011;4809;48.224;8.572;2023-02-28T04:08:29;5.13;;;3.97;;
9541;SDS011;4809;48.224;8.572;2023-02-28T04:10:56;4.80;;;4.07;;
9541;SDS011;4809;48.224;8.572;2023-02-28T04:13:29;5.57;;;3.77;;
9541;SDS011;4809;48.224;8.572;2023-02-28T04:15:54;5.27;;;4.00;;
9541;SDS011;4809;48.224;8.572;2023-02-28T04:18:20;5.03;;;3.70;;
9541;SDS011;4809;48.224;8.572;2023-02-28T04:20:46;7.63;;;4.10;;
9541;SDS011;4809;48.224;8.572;2023-02-28T04:23:11;5.33;;;3.70;;
9541;SDS011;4809;48.224;8.572;2023-02-28T04:25:37;5.00;;;4.07;;
9541;SDS011;4809;48.224;8.572;2023-02-28T04:28:05;7.00;;;4.33;;
9541;SDS011;4809;48.224;8.572;2023-02-28T04:30:31;4.67;;;3.73;;
9541;SDS011;4809;48.224;8.572;2023-02-28T04:32:57;6.30;;;4.27;;
9541;SDS011;4809;48.224;8.572;2023-02-28T04:35:23;6.50;;;4.17;;
9541;SDS011;4809;48.224;8.572;2023-02-28T04:37:49;6.20;;;4.20;;
9541;SDS011;4809;48.224;8.572;2023-02-28T04:40:15;6.70;;;4.30;;
9541;SDS011;4809;48.224;8.572;2023-02-28T04:42:40;5.80;;;4.10;;
9541;SDS011;4809;48.224;8.572;2023-02-28T04:45:06;6.80;;;4.37;;
9541;SDS011;4809;48.224;8.572;2023-02-28T04:47:35;6.07;;;4.03;;
9541;SDS011;4809;48.224;8.572;2023-02-28T04:50:01;4.87;;;4.00;;
9541;SDS011;4809;48.224;8.572;2023-02-28T04:52:27;7.00;;;4.17;;
9541;SDS011;4809;48.224;8.572;2023-02-28T04:54:52;7.37;;;4.40;;
9541;SDS011;4809;48.224;8.572;2023-02-28T04:57:18;5.43;;;4.10;;
9541;SDS011;4809;48.224;8.572;2023-02-28T04:59:43;5.77;;;4.13;;
9541;SDS011;4809;48.224;8.572;2023-02-28T05:02:09;6.10;;;4.50;;
9541;SDS011;4809;48.224;8.572;2023-02-28T05:04:35;5.00;;;4.10;;
9541;SDS011;4809;48.224;8.572;2023-02-28T05:07:01;5.73;;;4.20;;
9541;SDS011;4809;48.224;8.572;2023-02-28T05:09:28;6.50;;;4.67;;
9541;SDS011;4809;48.224;8.572;2023-02-28T05:11:54;5.30;;;4.10;;
9541;SDS011;4809;48.224;8.572;2023-02-28T05:14:20;5.23;;;4.30;;
9541;SDS011;4809;48.224;8.572;2023-02-28T05:16:46;8.00;;;4.67;;
9541;SDS011;4809;48.224;8.572;2023-02-28T05:19:12;5.70;;;4.50;;
9541;SDS011;4809;48.224;8.572;2023-02-28T05:21:38;7.30;;;5.00;;
9541;SDS011;4809;48.224;8.572;2023-02-28T05:24:11;7.03;;;4.93;;
9541;SDS011;4809;48.224;8.572;2023-02-28T05:26:38;8.40;;;5.20;;
9541;SDS011;4809;48.224;8.572;2023-02-28T05:29:06;6.73;;;4.80;;
9541;SDS011;4809;48.224;8.572;2023-02-28T05:31:32;6.17;;;4.60;;
9541;SDS011;4809;48.224;8.572;2023-02-28T05:33:58;6.23;;;5.13;;
9541;SDS011;4809;48.224;8.572;2023-02-28T05:36:24;6.33;;;4.80;;
9541;SDS011;4809;48.224;8.572;2023-02-28T05:38:50;8.50;;;5.10;;
9541;SDS011;4809;48.224;8.572;2023-02-28T05:41:16;5.93;;;4.83;;
9541;SDS011;4809;48.224;8.572;2023-02-28T05:43:44;5.90;;;4.90;;
9541;SDS011;4809;48.224;8.572;2023-02-28T05:46:11;6.60;;;4.80;;
9541;SDS011;4809;48.224;8.572;2023-02-28T05:48:38;7.60;;;5.07;;
9541;SDS011;4809;48.224;8.572;2023-02-28T05:51:05;6.30;;;4.90;;
9541;SDS011;4809;48.224;8.572;2023-02-28T05:53:32;6.60;;;4.83;;
9541;SDS011;4809;48.224;8.572;2023-02-28T05:55:58;7.63;;;5.07;;
9541;SDS011;4809;48.224;8.572;2023-02-28T05:58:24;7.93;;;5.93;;
9541;SDS011;4809;48.224;8.572;2023-02-28T06:00:54;8.00;;;5.50;;
9541;SDS011;4809;48.224;8.572;2023-02-28T06:03:19;6.37;;;5.10;;
9541;SDS011;4809;48.224;8.572;2023-02-28T06:05:46;7.90;;;5.77;;
9541;SDS011;4809;48.224;8.572;2023-02-28T06:08:12;7.30;;;5.50;;
9541;SDS011;4809;48.224;8.572;2023-02-28T06:10:38;6.97;;;5.40;;
9541;SDS011;4809;48.224;8.572;2023-02-28T06:13:03;7.67;;;5.47;;
9541;SDS011;4809;48.224;8.572;2023-02-28T06:15:29;9.00;;;5.73;;
9541;SDS011;4809;48.224;8.572;2023-02-28T06:17:55;7.67;;;5.90;;
9541;SDS011;4809;48.224;8.572;2023-02-28T06:20:22;7.77;;;5.87;;
9541;SDS011;4809;48.224;8.572;2023-02-28T06:22:49;9.17;;;6.27;;
9541;SDS011;4809;48.224;8.572;2023-02-28T06:25:16;8.23;;;5.90;;
9541;SDS011;4809;48.224;8.572;2023-02-28T06:27:42;7.87;;;6.17;;
9541;SDS011;4809;48.224;8.572;2023-02-28T06:30:09;8.47;;;5.90;;
9541;SDS011;4809;48.224;8.572;2023-02-28T06:32:35;8.60;;;5.90;;
9541;SDS011;4809;48.224;8.572;2023-02-28T06:35:01;10.07;;;6.00;;
9541;SDS011;4809;48.224;8.572;2023-02-28T06:37:28;9.97;;;6.60;;
9541;SDS011;4809;48.224;8.572;2023-02-28T06:39:55;9.40;;;6.43;;
9541;SDS011;4809;48.224;8.572;2023-02-28T06:42:21;11.03;;;7.20;;
9541;SDS011;4809;48.224;8.572;2023-02-28T06:44:50;9.17;;;6.27;;
9541;SDS011;4809;48.224;8.572;2023-02-28T06:47:16;8.20;;;6.20;;
9541;SDS011;4809;48.224;8.572;2023-02-28T06:49:41;9.60;;;6.40;;
9541;SDS011;4809;48.224;8.572;2023-02-28T06:52:07;8.87;;;6.47;;
9541;SDS011;4809;48.224;8.572;2023-02-28T06:54:35;8.67;;;6.47;;
9541;SDS011;4809;48.224;8.572;2023-02-28T06:57:01;9.10;;;6.10;;
9541;SDS011;4809;48.224;8.572;2023-02-28T06:59:27;9.43;;;6.90;;
9541;SDS011;4809;48.224;8.572;2023-02-28T07:01:53;9.10;;;6.73;;
9541;SDS011;4809;48.224;8.572;2023-02-28T07:04:20;7.67;;;6.27;;
9541;SDS011;4809;48.224;8.572;2023-02-28T07:06:46;11.33;;;7.13;;
9541;SDS011;4809;48.224;8.572;2023-02-28T07:09:11;8.93;;;6.40;;
9541;SDS011;4809;48.224;8.572;2023-02-28T07:11:38;8.80;;;6.80;;
9541;SDS011;4809;48.224;8.572;2023-02-28T07:14:04;9.23;;;6.37;;
9541;SDS011;4809;48.224;8.572;2023-02-28T07:16:30;8.83;;;6.40;;
9541;SDS011;4809;48.224;8.572;2023-02-28T07:18:55;8.70;;;6.77;;
9541;SDS011;4809;48.224;8.572;2023-02-28T07:21:21;9.13;;;6.60;;
9541;SDS011;4809;48.224;8.572;2023-02-28T07:23:47;11.03;;;7.70;;
9541;SDS011;4809;48.224;8.572;2023-02-28T07:26:14;9.57;;;6.77;;
9541;SDS011;4809;48.224;8.572;2023-02-28T07:28:42;10.23;;;6.60;;
9541;SDS011;4809;48.224;8.572;2023-02-28T07:31:09;9.60;;;6.77;;
9541;SDS011;4809;48.224;8.572;2023-02-28T07:33:35;8.23;;;6.37;;
9541;SDS011;4809;48.224;8.572;2023-02-28T07:36:06;8.47;;;6.60;;
9541;SDS011;4809;48.224;8.572;2023-02-28T07:38:34;9.00;;;6.67;;
9541;SDS011;4809;48.224;8.572;2023-02-28T07:41:01;8.60;;;6.60;;
9541;SDS011;4809;48.224;8.572;2023-02-28T07:43:30;9.20;;;7.07;;
9541;SDS011;4809;48.224;8.572;2023-02-28T07:46:00;9.43;;;7.13;;
9541;SDS011;4809;48.224;8.572;2023-02-28T07:48:33;12.13;;;7.10;;
9541;SDS011;4809;48.224;8.572;2023-02-28T07:50:59;8.83;;;6.37;;
9541;SDS011;4809;48.224;8.572;2023-02-28T07:53:26;8.90;;;6.73;;
9541;SDS011;4809;48.224;8.572;2023-02-28T07:55:56;8.70;;;6.50;;
9541;SDS011;4809;48.224;8.572;2023-02-28T07:58:23;10.57;;;7.73;;
9541;SDS011;4809;48.224;8.572;2023-02-28T08:00:49;10.47;;;7.17;;
9541;SDS011;4809;48.224;8.572;2023-02-28T08:03:14;11.43;;;7.40;;
9541;SDS011;4809;48.224;8.572;2023-02-28T08:05:41;11.33;;;7.10;;
9541;SDS011;4809;48.224;8.572;2023-02-28T08:08:07;9.63;;;6.40;;
9541;SDS011;4809;48.224;8.572;2023-02-28T08:10:33;9.13;;;6.57;;
9541;SDS011;4809;48.224;8.572;2023-02-28T08:12:59;10.10;;;6.97;;
9541;SDS011;4809;48.224;8.572;2023-02-28T08:15:25;9.73;;;6.63;;
9541;SDS011;4809;48.224;8.572;2023-02-28T08:17:51;8.50;;;6.80;;
9541;SDS011;4809;48.224;8.572;2023-02-28T08:20:17;9.10;;;6.43;;
9541;SDS011;4809;48.224;8.572;2023-02-28T08:22:42;10.13;;;7.00;;
9541;SDS011;4809;48.224;8.572;2023-02-28T08:25:08;10.43;;;7.20;;
9541;SDS011;4809;48.224;8.572;2023-02-28T08:27:34;11.70;;;8.23;;
9541;SDS011;4809;48.224;8.572;2023-02-28T08:30:01;11.23;;;7.73;;
9541;SDS011;4809;48.224;8.572;2023-02-28T08:32:28;15.03;;;9.30;;
9541;SDS011;4809;48.224;8.572;2023-02-28T08:34:53;11.40;;;8.43;;
9541;SDS011;4809;48.224;8.572;2023-02-28T08:37:19;9.83;;;7.53;;
9541;SDS011;4809;48.224;8.572;2023-02-28T08:39:45;10.07;;;7.60;;
9541;SDS011;4809;48.224;8.572;2023-02-28T08:42:11;11.47;;;7.93;;
9541;SDS011;4809;48.224;8.572;2023-02-28T08:44:36;9.93;;;7.10;;
9541;SDS011;4809;48.224;8.572;2023-02-28T08:47:02;12.07;;;8.47;;
9541;SDS011;4809;48.224;8.572;2023-02-28T08:49:27;10.77;;;7.20;;
9541;SDS011;4809;48.224;8.572;2023-02-28T08:51:53;10.57;;;7.43;;
9541;SDS011;4809;48.224;8.572;2023-02-28T08:54:20;12.30;;;8.03;;
9541;SDS011;4809;48.224;8.572;2023-02-28T08:56:46;11.43;;;8.50;;
9541;SDS011;4809;48.224;8.572;2023-02-28T08:59:12;10.17;;;7.10;;
9541;SDS011;4809;48.224;8.572;2023-02-28T09:01:38;13.03;;;8.47;;
9541;SDS011;4809;48.224;8.572;2023-02-28T09:04:06;11.17;;;8.10;;
9541;SDS011;4809;48.224;8.572;2023-02-28T09:06:33;10.60;;;7.93;;
9541;SDS011;4809;48.224;8.572;2023-02-28T09:09:00;11.27;;;9.80;;
9541;SDS011;4809;48.224;8.572;2023-02-28T09:11:26;9.53;;;7.50;;
9541;SDS011;4809;48.224;8.572;2023-02-28T09:13:52;11.03;;;7.80;;
9541;SDS011;4809;48.224;8.572;2023-02-28T09:16:18;9.20;;;6.90;;
9541;SDS011;4809;48.224;8.572;2023-02-28T09:18:44;9.63;;;7.60;;
9541;SDS011;4809;48.224;8.572;2023-02-28T09:21:11;13.30;;;8.37;;
9541;SDS011;4809;48.224;8.572;2023-02-28T09:23:39;11.43;;;8.30;;
9541;SDS011;4809;48.224;8.572;2023-02-28T09:26:06;10.40;;;7.50;;
9541;SDS011;4809;48.224;8.572;2023-02-28T09:28:33;11.43;;;8.33;;
9541;SDS011;4809;48.224;8.572;2023-02-28T09:30:59;11.67;;;7.73;;
9541;SDS011;4809;48.224;8.572;2023-02-28T09:33:24;11.63;;;7.67;;
9541;SDS011;4809;48.224;8.572;2023-02-28T09:35:50;10.93;;;7.57;;
9541;SDS011;4809;48.224;8.572;2023-02-28T09:38:23;9.80;;;7.80;;
9541;SDS011;4809;48.224;8.572;2023-02-28T09:40:53;11.43;;;8.27;;
9541;SDS011;4809;48.224;8.572;2023-02-28T09:43:25;11.50;;;8.53;;
9541;SDS011;4809;48.224;8.572;2023-02-28T09:45:55;11.00;;;7.90;;
9541;SDS011;4809;48.224;8.572;2023-02-28T09:48:35;12.00;;;8.87;;
9541;SDS011;4809;48.224;8.572;2023-02-28T09:51:05;10.77;;;8.33;;
9541;SDS011;4809;48.224;8.572;2023-02-28T09:53:36;11.23;;;8.00;;
9541;SDS011;4809;48.224;8.572;2023-02-28T09:56:05;11.97;;;8.60;;
9541;SDS011;4809;48.224;8.572;2023-02-28T10:07:02;11.87;;;8.90;;
9541;SDS011;4809;48.224;8.572;2023-02-28T10:09:42;12.10;;;8.40;;
9541;SDS011;4809;48.224;8.572;2023-02-28T10:12:10;12.83;;;9.40;;
9541;SDS011;4809;48.224;8.572;2023-02-28T10:14:37;11.10;;;8.63;;
9541;SDS011;4809;48.224;8.572;2023-02-28T10:17:19;11.00;;;8.70;;
9541;SDS011;4809;48.224;8.572;2023-02-28T10:19:59;12.23;;;8.90;;
9541;SDS011;4809;48.224;8.572;2023-02-28T10:23:24;12.93;;;9.60;;
9541;SDS011;4809;48.224;8.572;2023-02-28T10:25:23;12.30;;;8.73;;
9541;SDS011;4809;48.224;8.572;2023-02-28T10:30:39;13.97;;;10.00;;
9541;SDS011;4809;48.224;8.572;2023-02-28T10:33:10;12.93;;;9.93;;
9541;SDS011;4809;48.224;8.572;2023-02-28T10:35:49;13.33;;;9.73;;
9541;SDS011;4809;48.224;8.572;2023-02-28T10:38:17;13.70;;;10.03;;
9541;SDS011;4809;48.224;8.572;2023-02-28T10:40:45;11.83;;;8.90;;
9541;SDS011;4809;48.224;8.572;2023-02-28T10:58:53;19.87;;;12.73;;
9541;SDS011;4809;48.224;8.572;2023-02-28T11:01:48;20.07;;;11.90;;
9541;SDS011;4809;48.224;8.572;2023-02-28T11:07:39;17.93;;;12.33;;
9541;SDS011;4809;48.224;8.572;2023-02-28T11:09:53;15.47;;;10.57;;
9541;SDS011;4809;48.224;8.572;2023-02-28T11:12:23;14.23;;;10.23;;
9541;SDS011;4809;48.224;8.572;2023-02-28T11:15:05;13.97;;;10.07;;
9541;SDS011;4809;48.224;8.572;2023-02-28T11:17:44;17.87;;;10.60;;
9541;SDS011;4809;48.224;8.572;2023-02-28T11:20:21;14.60;;;10.77;;
9541;SDS011;4809;48.224;8.572;2023-02-28T11:22:49;17.17;;;12.03;;
9541;SDS011;4809;48.224;8.572;2023-02-28T11:25:36;20.23;;;13.30;;
9541;SDS011;4809;48.224;8.572;2023-02-28T11:28:04;15.57;;;10.20;;
9541;SDS011;4809;48.224;8.572;2023-02-28T11:30:40;15.40;;;10.27;;
9541;SDS011;4809;48.224;8.572;2023-02-28T11:33:23;15.00;;;10.13;;
9541;SDS011;4809;48.224;8.572;2023-02-28T11:35:51;14.83;;;10.90;;
9541;SDS011;4809;48.224;8.572;2023-02-28T11:38:19;12.87;;;10.07;;
9541;SDS011;4809;48.224;8.572;2023-02-28T11:40:50;12.90;;;9.83;;
9541;SDS011;4809;48.224;8.572;2023-02-28T11:43:40;19.10;;;12.73;;
9541;SDS011;4809;48.224;8.572;2023-02-28T11:51:26;12.30;;;9.70;;
9541;SDS011;4809;48.224;8.572;2023-02-28T11:54:03;13.53;;;10.43;;
9541;SDS011;4809;48.224;8.572;2023-02-28T11:57:31;14.97;;;10.10;;
9541;SDS011;4809;48.224;8.572;2023-02-28T12:02:26;14.03;;;10.37;;
9541;SDS011;4809;48.224;8.572;2023-02-28T12:05:01;15.73;;;10.90;;
9541;SDS011;4809;48.224;8.572;2023-02-28T12:10:29;17.73;;;10.67;;
9541;SDS011;4809;48.224;8.572;2023-02-28T12:13:08;16.63;;;11.53;;
9541;SDS011;4809;48.224;8.572;2023-02-28T12:21:46;14.23;;;10.50;;
9541;SDS011;4809;48.224;8.572;2023-02-28T12:27:05;16.73;;;11.63;;
9541;SDS011;4809;48.224;8.572;2023-02-28T12:29:58;26.90;;;16.10;;
9541;SDS011;4809;48.224;8.572;2023-02-28T12:32:34;16.27;;;11.23;;
9541;SDS011;4809;48.224;8.572;2023-02-28T12:35:11;14.73;;;11.17;;
9541;SDS011;4809;48.224;8.572;2023-02-28T12:37:44;13.83;;;10.30;;
9541;SDS011;4809;48.224;8.572;2023-02-28T12:40:17;13.00;;;10.50;;
9541;SDS011;4809;48.224;8.572;2023-02-28T12:42:47;14.13;;;10.40;;
9541;SDS011;4809;48.224;8.572;2023-02-28T12:45:18;14.40;;;10.67;;
9541;SDS011;4809;48.224;8.572;2023-02-28T12:47:50;12.93;;;9.70;;
9541;SDS011;4809;48.224;8.572;2023-02-28T12:50:22;17.10;;;10.70;;
9541;SDS011;4809;48.224;8.572;2023-02-28T12:58:33;13.00;;;10.30;;
9541;SDS011;4809;48.224;8.572;2023-02-28T13:09:20;14.23;;;10.07;;
9541;SDS011;4809;48.224;8.572;2023-02-28T13:11:46;13.73;;;10.03;;
9541;SDS011;4809;48.224;8.572;2023-02-28T13:14:26;11.60;;;9.57;;
9541;SDS011;4809;48.224;8.572;2023-02-28T13:19:25;13.57;;;9.50;;
9541;SDS011;4809;48.224;8.572;2023-02-28T13:21:53;14.63;;;9.63;;
9541;SDS011;4809;48.224;8.572;2023-02-28T13:27:31;14.90;;;10.93;;
9541;SDS011;4809;48.224;8.572;2023-02-28T13:29:58;13.23;;;10.50;;
9541;SDS011;4809;48.224;8.572;2023-02-28T13:47:39;13.67;;;9.57;;
9541;SDS011;4809;48.224;8.572;2023-02-28T13:53:05;16.10;;;11.40;;
9541;SDS011;4809;48.224;8.572;2023-02-28T14:01:21;14.13;;;11.33;;
9541;SDS011;4809;48.224;8.572;2023-02-28T14:06:40;14.63;;;11.73;;
9541;SDS011;4809;48.224;8.572;2023-02-28T14:09:27;11.67;;;9.87;;
9541;SDS011;4809;48.224;8.572;2023-02-28T14:11:55;16.77;;;13.73;;
9541;SDS011;4809;48.224;8.572;2023-02-28T14:17:06;12.50;;;10.73;;
9541;SDS011;4809;48.224;8.572;2023-02-28T14:19:40;12.13;;;9.77;;
9541;SDS011;4809;48.224;8.572;2023-02-28T14:25:20;13.10;;;10.57;;
9541;SDS011;4809;48.224;8.572;2023-02-28T14:33:25;11.48;;;9.32;;
9541;SDS011;4809;48.224;8.572;2023-02-28T14:38:31;12.18;;;10.20;;
9541;SDS011;4809;48.224;8.572;2023-02-28T14:41:21;10.43;;;9.32;;
9541;SDS011;4809;48.224;8.572;2023-02-28T14:43:51;10.23;;;8.65;;
9541;SDS011;4809;48.224;8.572;2023-02-28T14:46:22;10.30;;;9.23;;
9541;SDS011;4809;48.224;8.572;2023-02-28T14:48:51;10.52;;;9.40;;
9541;SDS011;4809;48.224;8.572;2023-02-28T14:51:18;11.27;;;9.20;;
9541;SDS011;4809;48.224;8.572;2023-02-28T14:53:47;10.32;;;9.30;;
9541;SDS011;4809;48.224;8.572;2023-02-28T14:56:21;9.27;;;8.23;;
9541;SDS011;4809;48.224;8.572;2023-02-28T14:58:54;10.63;;;9.50;;
9541;SDS011;4809;48.224;8.572;2023-02-28T15:01:22;12.13;;;10.70;;
9541;SDS011;4809;48.224;8.572;2023-02-28T15:03:56;11.60;;;9.55;;
9541;SDS011;4809;48.224;8.572;2023-02-28T15:06:23;10.45;;;9.35;;
9541;SDS011;4809;48.224;8.572;2023-02-28T15:09:06;12.73;;;10.95;;
9541;SDS011;4809;48.224;8.572;2023-02-28T15:11:33;11.00;;;9.90;;
9541;SDS011;4809;48.224;8.572;2023-02-28T15:14:00;10.10;;;9.10;;
9541;SDS011;4809;48.224;8.572;2023-02-28T15:16:36;10.25;;;9.25;;
9541;SDS011;4809;48.224;8.572;2023-02-28T15:19:28;9.43;;;8.52;;
9541;SDS011;4809;48.224;8.572;2023-02-28T15:22:04;10.55;;;9.55;;
9541;SDS011;4809;48.224;8.572;2023-02-28T15:24:37;10.70;;;9.60;;
9541;SDS011;4809;48.224;8.572;2023-02-28T15:27:07;10.52;;;9.52;;
9541;SDS011;4809;48.224;8.572;2023-02-28T15:29:46;12.25;;;11.00;;
9541;SDS011;4809;48.224;8.572;2023-02-28T15:34:58;10.30;;;9.23;;
9541;SDS011;4809;48.224;8.572;2023-02-28T15:37:54;10.70;;;9.70;;
9541;SDS011;4809;48.224;8.572;2023-02-28T15:40:29;9.98;;;8.98;;
9541;SDS011;4809;48.224;8.572;2023-02-28T15:45:31;9.80;;;8.80;;
9541;SDS011;4809;48.224;8.572;2023-02-28T15:48:22;10.07;;;9.07;;
9541;SDS011;4809;48.224;8.572;2023-02-28T15:51:14;10.48;;;9.40;;
9541;SDS011;4809;48.224;8.572;2023-02-28T15:53:47;9.63;;;8.63;;
9541;SDS011;4809;48.224;8.572;2023-02-28T15:56:26;10.45;;;9.43;;
9541;SDS011;4809;48.224;8.572;2023-02-28T15:59:04;15.35;;;13.40;;
9541;SDS011;4809;48.224;8.572;2023-02-28T16:01:36;22.40;;;16.98;;
9541;SDS011;4809;48.224;8.572;2023-02-28T16:04:04;12.75;;;11.20;;
9541;SDS011;4809;48.224;8.572;2023-02-28T16:09:14;10.73;;;9.60;;
9541;SDS011;4809;48.224;8.572;2023-02-28T16:11:50;11.57;;;10.38;;
9541;SDS011;4809;48.224;8.572;2023-02-28T16:14:23;12.20;;;10.07;;
9541;SDS011;4809;48.224;8.572;2023-02-28T16:16:53;10.50;;;9.30;;
9541;SDS011;4809;48.224;8.572;2023-02-28T16:19:21;12.27;;;10.63;;
9541;SDS011;4809;48.224;8.572;2023-02-28T16:21:48;14.32;;;11.10;;
9541;SDS011;4809;48.224;8.572;2023-02-28T16:24:14;12.68;;;10.38;;
9541;SDS011;4809;48.224;8.572;2023-02-28T16:26:40;13.77;;;9.70;;
9541;SDS011;4809;48.224;8.572;2023-02-28T16:29:10;12.73;;;10.53;;
9541;SDS011;4809;48.224;8.572;2023-02-28T16:31:43;14.13;;;10.60;;
9541;SDS011;4809;48.224;8.572;2023-02-28T16:34:09;17.50;;;11.10;;
9541;SDS011;4809;48.224;8.572;2023-02-28T16:36:34;17.03;;;12.10;;
9541;SDS011;4809;48.224;8.572;2023-02-28T16:39:00;15.03;;;11.40;;
9541;SDS011;4809;48.224;8.572;2023-02-28T16:41:27;11.90;;;9.97;;
9541;SDS011;4809;48.224;8.572;2023-02-28T16:43:54;12.83;;;9.47;;
9541;SDS011;4809;48.224;8.572;2023-02-28T16:46:30;13.17;;;10.77;;
9541;SDS011;4809;48.224;8.572;2023-02-28T16:48:59;14.00;;;10.83;;
9541;SDS011;4809;48.224;8.572;2023-02-28T16:51:25;12.97;;;10.57;;
9541;SDS011;4809;48.224;8.572;2023-02-28T16:53:50;13.60;;;10.87;;
9541;SDS011;4809;48.224;8.572;2023-02-28T16:56:22;14.80;;;11.00;;
9541;SDS011;4809;48.224;8.572;2023-02-28T16:58:50;15.07;;;11.73;;
9541;SDS011;4809;48.224;8.572;2023-02-28T17:01:17;15.20;;;12.40;;
9541;SDS011;4809;48.224;8.572;2023-02-28T17:03:47;14.07;;;10.60;;
9541;SDS011;4809;48.224;8.572;2023-02-28T17:06:18;14.93;;;11.00;;
9541;SDS011;4809;48.224;8.572;2023-02-28T17:08:49;13.60;;;10.47;;
9541;SDS011;4809;48.224;8.572;2023-02-28T17:11:16;12.23;;;10.30;;
9541;SDS011;4809;48.224;8.572;2023-02-28T17:13:42;46.47;;;30.67;;
9541;SDS011;4809;48.224;8.572;2023-02-28T17:18:50;11.60;;;9.67;;
9541;SDS011;4809;48.224;8.572;2023-02-28T17:21:16;13.03;;;10.30;;
9541;SDS011;4809;48.224;8.572;2023-02-28T17:23:43;14.07;;;10.60;;
9541;SDS011;4809;48.224;8.572;2023-02-28T17:26:11;14.07;;;10.57;;
